createdAt,value
2022-08-31T00:02:44.647Z,6.10
2022-08-31T00:05:15.113Z,6.70
2022-08-31T00:07:45.474Z,7.45
2022-08-31T00:10:31.614Z,7.10
2022-08-31T00:13:04.220Z,7.03
2022-08-31T00:15:34.632Z,7.25
2022-08-31T00:18:05.577Z,7.10
2022-08-31T00:20:36.948Z,8.52
2022-08-31T00:23:09.429Z,7.82
2022-08-31T00:25:42.382Z,8.13
2022-08-31T00:28:14.203Z,8.15
2022-08-31T00:30:45.213Z,8.20
2022-08-31T00:33:16.564Z,8.25
2022-08-31T00:35:47.595Z,8.48
2022-08-31T00:38:18.273Z,7.70
2022-08-31T00:40:50.598Z,8.25
2022-08-31T00:43:51.734Z,8.48
2022-08-31T00:46:27.972Z,8.65
2022-08-31T00:49:30.575Z,9.75
2022-08-31T00:52:11.581Z,9.70
2022-08-31T00:54:56.846Z,9.48
2022-08-31T00:57:37.953Z,10.60
2022-08-31T01:00:14.049Z,10.43
2022-08-31T01:02:44.805Z,11.15
2022-08-31T01:05:16.489Z,10.52
2022-08-31T01:07:49.818Z,10.70
2022-08-31T01:10:23.305Z,13.57
2022-08-31T01:12:59.454Z,12.77
2022-08-31T01:15:32.882Z,12.50
2022-08-31T01:18:06.262Z,13.27
2022-08-31T01:20:54.389Z,13.38
2022-08-31T01:23:30.927Z,12.75
2022-08-31T01:26:02.175Z,12.70
2022-08-31T01:28:32.511Z,11.23
2022-08-31T01:31:13.630Z,12.45
2022-08-31T01:33:44.450Z,12.80
2022-08-31T01:36:17.208Z,13.82
2022-08-31T01:38:52.941Z,13.02
2022-08-31T01:41:25.139Z,13.82
2022-08-31T01:43:56.636Z,11.60
2022-08-31T01:46:27.839Z,11.60
2022-08-31T01:48:58.599Z,13.43
2022-08-31T01:51:30.167Z,14.00
2022-08-31T01:54:00.989Z,12.80
2022-08-31T01:56:36.513Z,13.32
2022-08-31T01:59:08.687Z,13.13
2022-08-31T02:01:44.019Z,11.15
2022-08-31T02:04:17.170Z,10.90
2022-08-31T02:06:51.658Z,12.88
2022-08-31T02:09:23.663Z,13.93
2022-08-31T02:11:55.119Z,13.43
2022-08-31T02:14:25.853Z,12.82
2022-08-31T02:17:00.660Z,13.25
2022-08-31T02:19:30.966Z,14.07
2022-08-31T02:22:01.914Z,15.13
2022-08-31T02:24:32.213Z,12.82
2022-08-31T02:27:02.575Z,14.02
2022-08-31T02:29:32.820Z,14.60
2022-08-31T02:32:03.131Z,11.50
2022-08-31T02:34:33.395Z,12.25
2022-08-31T02:37:03.930Z,13.77
2022-08-31T02:39:35.250Z,12.48
2022-08-31T02:42:05.525Z,11.23
2022-08-31T02:44:40.813Z,11.82
2022-08-31T02:47:10.990Z,12.13
2022-08-31T02:55:24.332Z,13.23
2022-08-31T02:57:54.915Z,14.00
2022-08-31T03:00:29.133Z,13.10
2022-08-31T03:02:59.630Z,13.90
2022-08-31T03:05:30.896Z,12.88
2022-08-31T03:08:01.153Z,9.43
2022-08-31T03:10:31.448Z,10.68
2022-08-31T03:13:01.920Z,10.52
2022-08-31T03:15:32.410Z,10.13
2022-08-31T03:18:03.211Z,9.75
2022-08-31T03:20:37.352Z,9.70
2022-08-31T03:23:08.855Z,8.63
2022-08-31T03:25:40.192Z,10.05
2022-08-31T03:28:11.265Z,10.18
2022-08-31T03:30:47.900Z,8.82
2022-08-31T03:33:18.947Z,8.40
2022-08-31T03:35:49.391Z,9.15
2022-08-31T03:38:23.686Z,9.73
2022-08-31T03:40:53.967Z,9.85
2022-08-31T03:43:24.306Z,9.43
2022-08-31T03:45:55.053Z,8.90
2022-08-31T03:48:32.738Z,7.03
2022-08-31T03:51:03.539Z,7.03
2022-08-31T03:53:37.889Z,8.00
2022-08-31T03:56:11.145Z,9.63
2022-08-31T03:58:42.077Z,7.47
2022-08-31T04:01:17.139Z,11.57
2022-08-31T04:04:03.500Z,17.25
2022-08-31T04:06:35.805Z,17.58
2022-08-31T04:09:12.611Z,18.40
2022-08-31T04:11:45.736Z,19.65
2022-08-31T04:14:24.688Z,19.40
2022-08-31T04:17:05.988Z,18.40
2022-08-31T04:19:46.143Z,20.38
2022-08-31T04:22:16.416Z,19.75
2022-08-31T04:24:53.673Z,19.13
2022-08-31T04:27:23.861Z,19.83
2022-08-31T04:30:01.125Z,19.75
2022-08-31T04:32:31.393Z,18.67
2022-08-31T04:35:09.625Z,19.63
2022-08-31T04:37:43.405Z,15.30
2022-08-31T04:40:29.731Z,17.90
2022-08-31T04:43:04.789Z,18.42
2022-08-31T04:45:41.747Z,18.77
2022-08-31T04:48:19.673Z,16.88
2022-08-31T04:50:59.669Z,16.65
2022-08-31T05:02:59.066Z,14.88
2022-08-31T05:52:08.901Z,12.63
2022-08-31T06:27:23.595Z,15.05
2022-08-31T06:51:28.259Z,15.18
2022-08-31T07:10:56.966Z,11.63
2022-08-31T07:13:27.364Z,12.20
2022-08-31T07:16:07.064Z,12.52
2022-08-31T07:18:38.240Z,14.27
2022-08-31T07:28:41.480Z,13.80
2022-08-31T07:31:12.606Z,13.93
2022-08-31T07:33:43.280Z,13.85
2022-08-31T07:36:16.569Z,13.57
2022-08-31T07:39:04.242Z,14.77
2022-08-31T07:54:02.805Z,15.40
2022-08-31T08:45:47.529Z,16.25
2022-08-31T08:48:22.887Z,17.90
2022-08-31T08:50:55.108Z,15.52
2022-08-31T08:53:31.217Z,15.00
2022-08-31T09:04:02.104Z,16.48
2022-08-31T09:07:01.706Z,15.63
2022-08-31T09:09:45.025Z,16.23
2022-08-31T09:12:34.035Z,13.98
2022-08-31T09:15:33.635Z,15.88
2022-08-31T10:12:18.258Z,17.38
2022-08-31T10:18:52.859Z,16.23
2022-08-31T10:21:33.742Z,14.18
2022-08-31T10:24:34.753Z,15.38
2022-08-31T10:27:23.313Z,15.90
2022-08-31T11:00:46.836Z,15.45
2022-08-31T11:03:37.272Z,16.88
2022-08-31T11:06:30.139Z,16.85
2022-08-31T11:09:25.309Z,16.85
2022-08-31T11:12:09.133Z,17.00
2022-08-31T12:05:04.830Z,17.05
2022-08-31T12:07:48.023Z,19.80
2022-08-31T12:10:55.608Z,16.05
2022-08-31T12:13:38.470Z,17.63
2022-08-31T12:39:26.697Z,21.75
2022-08-31T12:42:02.738Z,23.10
2022-08-31T12:44:38.289Z,19.88
2022-08-31T12:47:39.928Z,20.52
2022-08-31T12:50:42.036Z,21.05
2022-08-31T12:53:39.057Z,22.65
2022-08-31T13:03:54.052Z,20.60
2022-08-31T13:06:32.233Z,21.65
2022-08-31T13:09:04.239Z,21.92
2022-08-31T13:11:53.058Z,21.15
2022-08-31T13:14:28.864Z,20.83
2022-08-31T13:17:28.135Z,20.75
2022-08-31T13:20:02.944Z,18.38
2022-08-31T13:22:43.201Z,17.55
2022-08-31T13:25:35.212Z,19.65
2022-08-31T13:28:30.107Z,19.67
2022-08-31T13:31:04.371Z,20.52
2022-08-31T13:33:41.507Z,22.05
2022-08-31T13:36:32.492Z,20.30
2022-08-31T13:39:16.355Z,21.77
2022-08-31T13:42:08.840Z,22.63
2022-08-31T13:44:44.509Z,19.60
2022-08-31T13:47:38.032Z,19.20
2022-08-31T13:50:39.239Z,20.17
2022-08-31T13:53:26.401Z,21.23
2022-08-31T13:55:58.966Z,19.55
2022-08-31T13:58:34.160Z,21.48
2022-08-31T14:01:28.039Z,21.05
2022-08-31T14:04:02.056Z,20.17
2022-08-31T14:06:37.571Z,20.63
2022-08-31T14:09:23.223Z,21.60
2022-08-31T14:12:07.502Z,21.85
2022-08-31T14:14:46.179Z,23.42
2022-08-31T14:17:20.813Z,23.30
2022-08-31T14:19:51.543Z,22.02
2022-08-31T14:22:41.125Z,23.13
2022-08-31T14:25:16.001Z,24.58
2022-08-31T14:27:47.817Z,23.00
2022-08-31T14:30:18.145Z,23.58
2022-08-31T14:33:01.551Z,21.92
2022-08-31T14:35:31.837Z,24.20
2022-08-31T14:38:02.446Z,23.25
2022-08-31T14:40:41.168Z,23.65
2022-08-31T14:43:19.946Z,24.90
2022-08-31T14:45:50.330Z,21.88
2022-08-31T14:48:23.631Z,22.42
2022-08-31T14:50:53.861Z,24.13
2022-08-31T14:53:24.089Z,25.23
2022-08-31T14:55:54.332Z,24.42
2022-08-31T14:58:26.013Z,22.98
2022-08-31T15:00:56.417Z,21.45
2022-08-31T15:03:28.952Z,20.83
2022-08-31T15:06:02.103Z,20.45
2022-08-31T15:08:38.588Z,21.00
2022-08-31T15:11:10.060Z,21.65
2022-08-31T15:13:41.850Z,21.60
2022-08-31T15:16:16.372Z,21.60
2022-08-31T15:18:47.154Z,20.23
2022-08-31T15:21:17.558Z,22.27
2022-08-31T15:23:50.431Z,23.60
2022-08-31T15:26:23.347Z,22.38
2022-08-31T15:28:55.310Z,23.08
2022-08-31T15:31:29.003Z,21.80
2022-08-31T15:34:04.245Z,20.85
2022-08-31T15:36:38.197Z,21.17
2022-08-31T15:39:09.370Z,23.77
2022-08-31T15:41:41.208Z,22.15
2022-08-31T15:44:12.986Z,23.20
2022-08-31T15:46:57.726Z,24.95
2022-08-31T15:49:29.418Z,22.80
2022-08-31T15:51:59.743Z,22.83
2022-08-31T15:54:36.678Z,21.20
2022-08-31T15:57:13.240Z,21.70
2022-08-31T15:59:45.179Z,21.67
2022-08-31T16:02:17.283Z,22.08
2022-08-31T16:04:48.096Z,23.00
2022-08-31T16:07:18.729Z,19.35
2022-08-31T16:09:48.964Z,24.58
2022-08-31T16:12:22.018Z,23.00
2022-08-31T16:14:53.768Z,22.17
2022-08-31T16:17:24.227Z,21.33
2022-08-31T16:19:54.518Z,22.20
2022-08-31T16:22:30.431Z,29.52
2022-08-31T16:25:02.239Z,27.33
2022-08-31T16:27:32.489Z,28.83
2022-08-31T16:30:03.309Z,27.92
2022-08-31T16:32:33.562Z,26.58
2022-08-31T16:35:03.868Z,27.33
2022-08-31T16:37:34.972Z,27.92
2022-08-31T16:40:06.580Z,26.65
2022-08-31T16:42:37.221Z,25.52
2022-08-31T16:45:08.205Z,24.92
2022-08-31T16:47:38.580Z,25.77
2022-08-31T16:50:11.494Z,25.30
2022-08-31T16:52:41.793Z,26.27
2022-08-31T16:55:14.210Z,26.90
2022-08-31T16:57:45.599Z,31.23
2022-08-31T17:00:16.253Z,31.67
2022-08-31T17:02:46.877Z,31.35
2022-08-31T17:05:17.214Z,28.40
2022-08-31T17:07:48.839Z,27.75
2022-08-31T17:10:19.258Z,27.58
2022-08-31T17:12:50.405Z,27.10
2022-08-31T17:15:21.108Z,27.67
2022-08-31T17:17:51.293Z,29.02
2022-08-31T17:20:22.285Z,26.75
2022-08-31T17:22:52.815Z,28.10
2022-08-31T17:25:26.597Z,27.40
2022-08-31T17:28:00.424Z,26.73
2022-08-31T17:30:32.873Z,27.70
2022-08-31T17:33:03.542Z,28.35
2022-08-31T17:35:34.063Z,26.65
2022-08-31T17:38:05.276Z,26.67
2022-08-31T17:40:35.741Z,30.13
2022-08-31T17:43:06.189Z,29.05
2022-08-31T17:45:39.067Z,30.13
2022-08-31T17:48:09.446Z,27.65
2022-08-31T17:50:46.994Z,27.63
2022-08-31T17:53:17.302Z,28.13
2022-08-31T17:55:56.800Z,28.40
2022-08-31T17:58:27.099Z,28.77
2022-08-31T18:00:58.168Z,29.13
2022-08-31T18:03:28.610Z,28.40
2022-08-31T18:05:58.927Z,29.33
2022-08-31T18:08:29.133Z,29.38
2022-08-31T18:10:59.384Z,28.85
2022-08-31T18:13:30.058Z,29.17
2022-08-31T18:16:00.336Z,31.23
2022-08-31T18:18:31.094Z,30.48
2022-08-31T18:21:01.623Z,32.35
2022-08-31T18:23:31.839Z,30.58
2022-08-31T18:26:02.141Z,32.35
2022-08-31T18:28:32.359Z,29.52
2022-08-31T18:31:09.673Z,32.08
2022-08-31T18:33:41.203Z,33.00
2022-08-31T18:36:14.428Z,31.70
2022-08-31T18:38:44.594Z,33.83
2022-08-31T18:41:26.320Z,29.52
2022-08-31T18:44:06.634Z,28.40
2022-08-31T18:46:37.222Z,29.45
2022-08-31T18:49:12.590Z,30.45
2022-08-31T18:51:45.131Z,30.20
2022-08-31T18:54:17.290Z,29.88
2022-08-31T18:56:47.898Z,29.63
2022-08-31T18:59:20.179Z,29.23
2022-08-31T19:01:50.649Z,30.40
2022-08-31T19:04:22.061Z,29.27
2022-08-31T19:06:52.940Z,31.70
2022-08-31T19:09:24.637Z,33.00
2022-08-31T19:11:57.882Z,31.85
2022-08-31T19:14:29.094Z,29.63
2022-08-31T19:17:03.905Z,32.50
2022-08-31T19:19:35.100Z,30.58
2022-08-31T19:22:05.549Z,32.17
2022-08-31T19:24:35.881Z,31.88
2022-08-31T19:27:06.331Z,31.38
2022-08-31T19:29:36.651Z,34.83
2022-08-31T19:32:08.303Z,35.25
2022-08-31T19:34:41.363Z,33.80
2022-08-31T19:37:12.278Z,34.45
2022-08-31T19:39:45.986Z,34.42
2022-08-31T19:42:18.421Z,33.83
2022-08-31T19:45:22.452Z,36.17
2022-08-31T19:47:40.693Z,37.80
2022-08-31T19:50:14.208Z,34.53
2022-08-31T19:52:45.169Z,34.90
2022-08-31T19:55:15.672Z,36.90
2022-08-31T19:57:45.869Z,35.75
2022-08-31T20:00:17.975Z,37.25
2022-08-31T20:02:48.402Z,36.53
2022-08-31T20:05:18.784Z,37.17
2022-08-31T20:07:49.138Z,36.63
2022-08-31T20:10:19.994Z,37.47
2022-08-31T20:12:52.446Z,37.00
2022-08-31T20:15:22.826Z,37.47
2022-08-31T20:17:59.169Z,37.50
2022-08-31T20:20:31.191Z,36.55
2022-08-31T20:23:01.625Z,35.85
2022-08-31T20:25:31.839Z,35.90
2022-08-31T20:28:03.380Z,35.53
2022-08-31T20:30:38.622Z,35.92
2022-08-31T20:33:10.294Z,35.97
2022-08-31T20:35:44.577Z,36.78
2022-08-31T20:38:16.199Z,37.33
2022-08-31T20:40:49.061Z,35.15
2022-08-31T20:43:19.545Z,38.10
2022-08-31T20:45:51.339Z,38.17
2022-08-31T20:48:40.988Z,36.90
2022-08-31T20:51:18.292Z,36.05
2022-08-31T20:53:51.025Z,34.08
2022-08-31T20:56:26.938Z,35.78
2022-08-31T20:58:57.317Z,36.58
2022-08-31T21:01:28.109Z,35.28
2022-08-31T21:03:59.529Z,36.00
2022-08-31T21:06:29.799Z,35.67
2022-08-31T21:09:00.233Z,36.78
2022-08-31T21:11:30.701Z,36.15
2022-08-31T21:14:02.222Z,35.20
2022-08-31T21:16:34.256Z,37.30
2022-08-31T21:19:14.558Z,35.05
2022-08-31T21:21:46.670Z,35.03
2022-08-31T21:24:19.167Z,36.13
2022-08-31T21:26:50.398Z,36.08
2022-08-31T21:29:21.124Z,35.10
2022-08-31T21:31:59.994Z,38.08
2022-08-31T21:34:33.899Z,37.63
2022-08-31T21:37:04.406Z,40.30
2022-08-31T21:39:34.865Z,36.50
2022-08-31T21:42:05.948Z,36.13
2022-08-31T21:44:37.905Z,37.53
2022-08-31T21:47:09.933Z,38.25
2022-08-31T21:49:40.265Z,37.13
2022-08-31T21:52:10.721Z,37.67
2022-08-31T21:54:43.831Z,34.25
2022-08-31T21:57:14.909Z,32.22
2022-08-31T21:59:45.227Z,33.38
2022-08-31T22:02:16.782Z,30.55
2022-08-31T22:04:47.848Z,32.05
2022-08-31T22:07:18.137Z,32.15
2022-08-31T22:09:48.975Z,33.38
2022-08-31T22:12:20.248Z,34.55
2022-08-31T22:14:52.284Z,33.70
2022-08-31T22:17:29.524Z,35.03
2022-08-31T22:20:15.139Z,36.05
2022-08-31T22:22:46.947Z,31.25
2022-08-31T22:25:17.471Z,32.85
2022-08-31T22:27:49.082Z,36.00
2022-08-31T22:30:22.051Z,33.92
2022-08-31T22:32:52.745Z,33.72
2022-08-31T22:35:24.122Z,34.33
2022-08-31T22:37:54.293Z,32.42
2022-08-31T22:40:24.592Z,33.70
2022-08-31T22:42:57.390Z,35.65
2022-08-31T22:45:27.790Z,33.38
2022-08-31T22:47:57.927Z,33.75
2022-08-31T22:50:28.661Z,35.40
2022-08-31T22:52:58.900Z,31.77
2022-08-31T22:55:31.307Z,35.58
2022-08-31T22:58:01.530Z,34.17
2022-08-31T23:00:32.193Z,32.38
2022-08-31T23:03:02.679Z,32.22
2022-08-31T23:05:33.401Z,35.70
2022-08-31T23:08:03.792Z,32.72
2022-08-31T23:10:34.803Z,31.27
2022-08-31T23:13:05.571Z,33.90
2022-08-31T23:15:36.266Z,32.17
2022-08-31T23:18:09.872Z,32.35
2022-08-31T23:20:43.815Z,30.85
2022-08-31T23:23:14.168Z,32.47
2022-08-31T23:25:44.553Z,31.63
2022-08-31T23:28:14.841Z,31.38
2022-08-31T23:30:46.671Z,33.78
2022-08-31T23:33:17.284Z,31.17
2022-08-31T23:35:49.357Z,33.10
2022-08-31T23:38:19.822Z,32.67
2022-08-31T23:40:51.395Z,31.08
2022-08-31T23:43:24.071Z,32.47
2022-08-31T23:45:54.579Z,33.30
2022-08-31T23:48:25.486Z,30.95
2022-08-31T23:50:57.486Z,32.38
2022-08-31T23:53:30.120Z,33.17
2022-08-31T23:56:00.458Z,31.00
2022-08-31T23:58:33.811Z,31.75
